createdAt,value
2022-12-12T00:01:07.403Z,11.75
2022-12-12T00:03:38.324Z,13.50
2022-12-12T00:06:08.634Z,13.75
2022-12-12T00:08:39.053Z,11.50
2022-12-12T00:11:10.019Z,13.00
2022-12-12T00:13:40.954Z,13.75
2022-12-12T00:16:12.299Z,10.00
2022-12-12T00:18:43.014Z,11.50
2022-12-12T00:21:17.060Z,11.25
2022-12-12T00:23:47.974Z,16.75
2022-12-12T00:26:41.291Z,12.25
2022-12-12T00:29:12.189Z,11.25
2022-12-12T00:31:42.582Z,12.50
2022-12-12T00:34:12.872Z,15.75
2022-12-12T00:36:43.269Z,14.00
2022-12-12T00:39:18.181Z,12.00
2022-12-12T00:41:45.879Z,13.00
2022-12-12T00:44:16.580Z,9.75
2022-12-12T00:46:47.004Z,6.75
2022-12-12T00:49:17.156Z,11.50
2022-12-12T00:51:47.399Z,4.00
2022-12-12T00:54:17.825Z,5.75
2022-12-12T00:56:48.102Z,9.50
2022-12-12T00:59:18.613Z,13.50
2022-12-12T01:01:49.018Z,7.00
2022-12-12T01:04:19.320Z,9.00
2022-12-12T01:06:49.513Z,12.00
2022-12-12T01:09:20.183Z,10.25
2022-12-12T01:11:50.722Z,12.00
2022-12-12T01:14:21.094Z,10.50
2022-12-12T01:16:51.425Z,12.00
2022-12-12T01:19:21.741Z,11.50
2022-12-12T01:21:52.181Z,8.50
2022-12-12T01:24:22.520Z,7.00
2022-12-12T01:26:52.900Z,13.75
2022-12-12T01:29:23.140Z,6.75
2022-12-12T01:31:54.450Z,7.00
2022-12-12T01:34:24.746Z,10.00
2022-12-12T01:36:55.254Z,7.00
2022-12-12T01:39:25.509Z,13.25
2022-12-12T01:41:55.779Z,9.50
2022-12-12T01:44:58.884Z,11.50
2022-12-12T01:47:29.176Z,10.00
2022-12-12T01:50:08.039Z,14.50
2022-12-12T01:52:44.341Z,10.00
2022-12-12T01:55:17.579Z,10.25
2022-12-12T01:57:51.041Z,6.75
2022-12-12T02:00:21.930Z,11.00
2022-12-12T02:02:53.073Z,5.25
2022-12-12T02:05:40.766Z,6.75
2022-12-12T02:08:12.622Z,5.25
2022-12-12T02:10:45.085Z,7.00
2022-12-12T02:13:21.099Z,6.25
2022-12-12T02:15:57.049Z,5.50
2022-12-12T02:18:36.913Z,7.00
2022-12-12T02:21:34.008Z,6.50
2022-12-12T02:24:25.764Z,5.00
2022-12-12T02:26:58.311Z,10.75
2022-12-12T02:29:40.432Z,9.50
2022-12-12T02:32:34.060Z,8.00
2022-12-12T02:35:23.752Z,8.25
2022-12-12T02:38:19.228Z,7.50
2022-12-12T02:41:05.692Z,9.75
2022-12-12T02:43:55.074Z,7.00
2022-12-12T02:46:52.104Z,6.25
2022-12-12T02:49:27.847Z,8.50
2022-12-12T02:51:59.477Z,11.50
2022-12-12T02:54:29.965Z,6.00
2022-12-12T02:57:02.202Z,9.25
2022-12-12T02:59:35.550Z,11.00
2022-12-12T03:02:14.413Z,5.25
2022-12-12T03:05:05.767Z,11.75
2022-12-12T03:07:41.688Z,4.75
2022-12-12T03:10:26.841Z,7.50
2022-12-12T03:13:00.026Z,10.25
2022-12-12T03:15:58.819Z,11.00
2022-12-12T03:18:57.263Z,10.25
2022-12-12T03:21:33.161Z,9.25
2022-12-12T03:27:05.911Z,9.75
2022-12-12T03:29:39.063Z,9.75
2022-12-12T03:32:15.077Z,10.00
2022-12-12T03:34:48.246Z,11.00
2022-12-12T03:37:23.813Z,11.25
2022-12-12T03:39:59.751Z,10.25
2022-12-12T03:42:41.519Z,23.25
2022-12-12T03:45:20.940Z,34.75
2022-12-12T03:47:59.887Z,8.50
2022-12-12T03:50:33.133Z,19.50
2022-12-12T03:53:12.416Z,14.25
2022-12-12T03:55:52.239Z,13.75
2022-12-12T03:58:34.151Z,26.75
2022-12-12T04:01:07.522Z,12.00
2022-12-12T04:04:00.531Z,11.50
2022-12-12T04:06:55.690Z,13.50
2022-12-12T04:09:27.888Z,13.50
2022-12-12T04:12:17.741Z,11.50
2022-12-12T04:14:51.640Z,11.00
2022-12-12T04:17:24.868Z,14.50
2022-12-12T04:20:03.901Z,7.75
2022-12-12T04:22:37.428Z,10.75
2022-12-12T04:25:19.937Z,9.00
2022-12-12T04:27:53.202Z,11.00
2022-12-12T04:30:23.647Z,11.50
2022-12-12T04:33:11.946Z,11.25
2022-12-12T04:36:05.841Z,13.25
2022-12-12T04:38:38.632Z,13.25
2022-12-12T04:41:12.025Z,11.75
2022-12-12T04:43:44.675Z,8.50
2022-12-12T04:46:17.887Z,16.00
2022-12-12T04:48:57.205Z,13.25
2022-12-12T04:51:30.798Z,9.25
2022-12-12T04:54:23.445Z,10.50
2022-12-12T04:56:56.601Z,13.00
2022-12-12T04:59:27.943Z,13.25
2022-12-12T05:02:10.085Z,12.50
2022-12-12T05:05:01.755Z,11.00
2022-12-12T05:07:39.794Z,10.25
2022-12-12T05:10:10.416Z,11.75
2022-12-12T05:12:46.632Z,14.00
2022-12-12T05:15:19.255Z,14.25
2022-12-12T05:17:55.242Z,18.25
2022-12-12T05:20:25.625Z,15.75
2022-12-12T05:22:56.783Z,12.00
2022-12-12T05:25:47.874Z,18.25
2022-12-12T05:28:18.221Z,14.50
2022-12-12T05:30:48.630Z,13.25
2022-12-12T05:33:19.053Z,13.75
2022-12-12T05:35:49.417Z,9.50
2022-12-12T05:38:19.690Z,14.00
2022-12-12T05:40:50.188Z,16.25
2022-12-12T05:43:20.501Z,18.75
2022-12-12T05:45:50.916Z,12.25
2022-12-12T05:48:24.518Z,16.75
2022-12-12T05:50:54.297Z,16.25
2022-12-12T05:53:24.682Z,17.25
2022-12-12T05:55:54.822Z,24.50
2022-12-12T05:58:25.800Z,17.75
2022-12-12T06:01:01.623Z,23.00
2022-12-12T06:03:28.417Z,19.75
2022-12-12T06:05:58.869Z,11.25
2022-12-12T06:08:29.624Z,8.25
2022-12-12T06:11:00.215Z,24.25
2022-12-12T06:13:37.376Z,23.00
2022-12-12T06:16:13.091Z,20.75
2022-12-12T06:18:43.523Z,18.25
2022-12-12T06:21:14.146Z,24.00
2022-12-12T06:23:44.453Z,17.50
2022-12-12T06:26:16.367Z,15.75
2022-12-12T06:28:47.295Z,24.00
2022-12-12T06:31:19.369Z,17.50
2022-12-12T06:33:49.669Z,25.75
2022-12-12T06:36:23.755Z,17.50
2022-12-12T06:38:58.119Z,12.50
2022-12-12T06:41:31.430Z,22.50
2022-12-12T06:44:02.361Z,16.75
2022-12-12T06:46:32.834Z,23.00
2022-12-12T06:49:03.093Z,17.25
2022-12-12T06:51:34.025Z,20.00
2022-12-12T06:54:04.614Z,13.25
2022-12-12T06:56:35.812Z,16.00
2022-12-12T06:59:06.442Z,16.00
2022-12-12T07:01:36.826Z,17.00
2022-12-12T07:04:07.861Z,23.25
2022-12-12T07:06:38.363Z,20.75
2022-12-12T07:09:09.089Z,23.75
2022-12-12T07:11:40.986Z,23.00
2022-12-12T07:14:11.867Z,9.75
2022-12-12T07:16:42.539Z,17.00
2022-12-12T07:19:12.886Z,18.00
2022-12-12T07:21:44.027Z,20.25
2022-12-12T07:24:14.574Z,21.00
2022-12-12T07:26:45.012Z,14.50
2022-12-12T07:29:15.310Z,19.25
2022-12-12T07:31:45.579Z,21.25
2022-12-12T07:34:15.956Z,18.00
2022-12-12T07:36:46.193Z,22.25
2022-12-12T07:39:20.871Z,17.00
2022-12-12T07:41:49.439Z,21.50
2022-12-12T07:44:19.915Z,21.75
2022-12-12T07:46:50.409Z,21.25
2022-12-12T07:49:20.717Z,11.25
2022-12-12T07:51:50.896Z,15.50
2022-12-12T07:54:21.261Z,17.00
2022-12-12T07:56:51.882Z,22.25
2022-12-12T07:59:22.580Z,23.00
2022-12-12T08:01:59.341Z,25.50
2022-12-12T08:04:35.852Z,17.25
2022-12-12T08:07:10.309Z,21.75
2022-12-12T08:09:43.487Z,23.50
2022-12-12T08:12:22.858Z,22.00
2022-12-12T08:14:58.135Z,19.50
2022-12-12T08:17:29.154Z,26.00
2022-12-12T08:19:59.911Z,25.00
2022-12-12T08:22:30.257Z,18.75
2022-12-12T08:25:01.365Z,18.50
2022-12-12T08:27:32.385Z,22.25
2022-12-12T08:30:02.905Z,19.50
2022-12-12T08:32:33.801Z,21.50
2022-12-12T08:35:04.261Z,20.00
2022-12-12T08:37:34.672Z,22.00
2022-12-12T08:40:05.729Z,23.00
2022-12-12T08:42:36.174Z,17.00
2022-12-12T08:45:07.298Z,19.00
2022-12-12T08:47:37.967Z,25.50
2022-12-12T08:50:08.614Z,20.00
2022-12-12T08:52:40.148Z,25.25
2022-12-12T08:55:10.958Z,35.75
2022-12-12T08:57:41.455Z,24.75
2022-12-12T09:00:12.798Z,26.00
2022-12-12T09:02:44.078Z,20.00
2022-12-12T09:05:14.951Z,12.75
2022-12-12T09:07:46.194Z,15.25
2022-12-12T09:10:16.708Z,12.75
2022-12-12T09:12:47.333Z,14.25
2022-12-12T09:15:18.058Z,15.00
2022-12-12T09:17:48.349Z,22.00
2022-12-12T09:20:18.728Z,13.75
2022-12-12T09:22:49.451Z,10.25
2022-12-12T09:25:19.884Z,11.50
2022-12-12T09:27:50.373Z,11.75
2022-12-12T09:30:20.841Z,12.75
2022-12-12T09:32:51.239Z,17.75
2022-12-12T09:35:21.481Z,12.25
2022-12-12T09:37:53.330Z,15.25
2022-12-12T09:40:50.381Z,31.25
2022-12-12T09:43:29.642Z,30.00
2022-12-12T09:46:03.024Z,31.00
2022-12-12T09:48:47.944Z,29.75
2022-12-12T09:51:23.178Z,9.00
2022-12-12T09:56:56.295Z,9.50
2022-12-12T09:59:29.638Z,5.00
2022-12-12T10:02:03.306Z,16.25
2022-12-12T10:04:59.443Z,3.25
2022-12-12T10:07:47.436Z,1.75
2022-12-12T10:10:37.835Z,2.25
2022-12-12T10:13:17.582Z,3.25
2022-12-12T10:15:50.851Z,3.75
2022-12-12T10:18:36.152Z,12.00
2022-12-12T10:21:09.400Z,2.00
2022-12-12T10:23:51.816Z,3.75
2022-12-12T10:26:27.967Z,2.50
2022-12-12T10:32:08.256Z,1.00
2022-12-12T10:35:17.825Z,2.00
2022-12-12T10:40:54.129Z,1.00
2022-12-12T10:43:27.396Z,0.50
2022-12-12T10:46:16.123Z,1.00
2022-12-12T10:48:49.320Z,1.00
2022-12-12T10:51:21.901Z,1.00
2022-12-12T10:53:53.590Z,1.00
2022-12-12T10:56:28.189Z,2.00
2022-12-12T10:59:00.634Z,1.75
2022-12-12T11:02:07.779Z,1.00
2022-12-12T11:04:06.410Z,1.00
2022-12-12T11:06:48.818Z,0.00
2022-12-12T11:09:22.848Z,0.75
2022-12-12T11:12:10.688Z,0.00
2022-12-12T11:14:52.284Z,2.00
2022-12-12T11:17:25.854Z,0.75
2022-12-12T11:19:59.144Z,2.00
2022-12-12T11:25:31.098Z,1.75
2022-12-12T11:28:06.830Z,2.00
2022-12-12T11:30:38.767Z,1.25
2022-12-12T11:33:15.124Z,2.00
2022-12-12T11:35:47.850Z,1.00
2022-12-12T11:38:21.100Z,1.00
2022-12-12T11:41:03.547Z,1.00
2022-12-12T11:43:37.151Z,2.00
2022-12-12T11:46:18.859Z,1.00
2022-12-12T11:49:10.371Z,1.00
2022-12-12T11:51:43.607Z,9.00
2022-12-12T11:54:25.856Z,1.00
2022-12-12T11:57:26.333Z,1.00
2022-12-12T12:00:16.931Z,1.00
2022-12-12T12:02:59.306Z,1.75
2022-12-12T12:05:59.136Z,0.00
2022-12-12T12:08:41.414Z,30.00
2022-12-12T12:11:34.427Z,0.75
2022-12-12T12:14:16.749Z,0.00
2022-12-12T12:17:12.042Z,1.75
2022-12-12T12:20:09.470Z,2.00
2022-12-12T12:23:13.556Z,3.00
2022-12-12T12:25:55.721Z,1.00
2022-12-12T12:28:47.900Z,2.00
2022-12-12T12:31:37.457Z,2.25
2022-12-12T12:34:16.482Z,3.00
2022-12-12T12:37:02.030Z,2.50
2022-12-12T12:39:47.224Z,3.50
2022-12-12T12:42:38.283Z,3.25
2022-12-12T12:45:28.242Z,2.50
2022-12-12T12:48:19.723Z,4.00
2022-12-12T12:53:41.096Z,6.00
2022-12-12T12:56:38.594Z,3.00
2022-12-12T12:59:16.547Z,3.00
2022-12-12T13:01:49.794Z,3.00
2022-12-12T13:07:49.665Z,3.25
2022-12-12T13:10:25.058Z,3.50
2022-12-12T13:13:08.028Z,5.50
2022-12-12T13:15:45.559Z,6.75
2022-12-12T13:18:17.825Z,5.00
2022-12-12T13:21:06.194Z,6.25
2022-12-12T13:23:45.399Z,4.25
2022-12-12T13:26:30.548Z,11.75
2022-12-12T13:29:04.042Z,5.25
2022-12-12T13:31:43.518Z,6.00
2022-12-12T13:34:37.091Z,6.25
2022-12-12T13:37:08.309Z,6.50
2022-12-12T13:39:39.485Z,6.50
2022-12-12T13:42:14.716Z,6.75
2022-12-12T13:44:48.304Z,9.50
2022-12-12T13:47:27.544Z,5.00
2022-12-12T13:50:00.922Z,5.25
2022-12-12T13:52:45.536Z,5.75
2022-12-12T13:55:21.224Z,5.50
2022-12-12T13:58:03.452Z,8.00
2022-12-12T14:00:36.290Z,7.75
2022-12-12T14:03:16.793Z,10.75
2022-12-12T14:05:50.577Z,11.50
2022-12-12T14:08:29.958Z,16.00
2022-12-12T14:11:03.001Z,17.50
2022-12-12T14:13:45.816Z,32.75
2022-12-12T14:16:22.098Z,42.00
2022-12-12T14:19:13.230Z,39.50
2022-12-12T14:21:47.296Z,42.00
2022-12-12T14:24:40.644Z,36.25
2022-12-12T14:27:11.592Z,35.50
2022-12-12T14:29:44.554Z,43.00
2022-12-12T14:35:33.597Z,40.25
2022-12-12T14:38:30.571Z,42.25
2022-12-12T14:41:09.125Z,40.75
2022-12-12T14:43:42.758Z,46.00
2022-12-12T14:46:18.570Z,44.50
2022-12-12T14:48:48.907Z,58.00
2022-12-12T14:51:30.052Z,57.75
2022-12-12T14:56:53.509Z,48.00
2022-12-12T14:59:32.931Z,59.25
2022-12-12T15:02:08.850Z,58.50
2022-12-12T15:04:40.757Z,56.50
2022-12-12T15:07:30.412Z,41.00
2022-12-12T15:10:00.985Z,34.75
2022-12-12T15:12:36.866Z,28.00
2022-12-12T15:15:14.827Z,23.50
2022-12-12T15:17:48.072Z,27.75
2022-12-12T15:20:29.199Z,35.75
2022-12-12T15:23:04.970Z,46.00
2022-12-12T15:28:36.998Z,16.75
2022-12-12T15:31:09.035Z,26.75
2022-12-12T15:33:40.916Z,22.25
2022-12-12T15:36:37.790Z,26.25
2022-12-12T15:39:16.072Z,28.75
2022-12-12T15:41:48.043Z,25.75
2022-12-12T15:44:20.853Z,35.00
2022-12-12T15:46:51.639Z,58.00
2022-12-12T15:49:41.550Z,85.20
2022-12-12T15:52:24.515Z,72.00
2022-12-12T15:55:00.896Z,78.00
2022-12-12T15:57:34.921Z,87.20
2022-12-12T16:00:26.344Z,76.80
2022-12-12T16:03:02.582Z,40.40
2022-12-12T16:05:36.134Z,27.60
2022-12-12T16:08:32.082Z,14.75
2022-12-12T16:11:07.257Z,12.25
2022-12-12T16:14:01.897Z,12.75
2022-12-12T16:16:41.129Z,7.25
2022-12-12T16:19:37.384Z,8.50
2022-12-12T16:22:19.719Z,7.00
2022-12-12T16:24:53.351Z,8.00
2022-12-12T16:27:23.830Z,6.25
2022-12-12T16:29:54.819Z,7.00
2022-12-12T16:32:25.676Z,6.00
2022-12-12T16:34:56.886Z,5.25
2022-12-12T16:37:28.572Z,6.00
2022-12-12T16:39:59.065Z,9.00
2022-12-12T16:42:29.558Z,5.75
2022-12-12T16:44:59.925Z,9.75
2022-12-12T16:47:34.313Z,5.50
2022-12-12T16:50:08.408Z,6.75
2022-12-12T16:52:39.520Z,9.25
2022-12-12T16:55:18.657Z,6.50
2022-12-12T16:57:49.256Z,6.25
2022-12-12T17:00:19.956Z,7.00
2022-12-12T17:02:50.670Z,7.50
2022-12-12T17:05:24.004Z,10.75
2022-12-12T17:07:55.204Z,9.50
2022-12-12T17:10:26.996Z,6.00
2022-12-12T17:12:57.584Z,6.50
2022-12-12T17:15:30.788Z,9.75
2022-12-12T17:18:01.503Z,8.50
2022-12-12T17:20:37.538Z,4.25
2022-12-12T17:23:29.173Z,9.50
2022-12-12T17:26:04.286Z,11.50
2022-12-12T17:28:35.030Z,18.75
2022-12-12T17:31:09.664Z,27.75
2022-12-12T17:33:49.931Z,38.00
2022-12-12T17:36:16.582Z,45.75
2022-12-12T17:38:47.952Z,40.00
2022-12-12T17:41:18.476Z,39.00
2022-12-12T17:43:55.420Z,42.25
2022-12-12T17:46:23.127Z,42.25
2022-12-12T17:48:53.589Z,40.50
2022-12-12T17:51:24.220Z,40.25
2022-12-12T17:53:55.679Z,35.50
2022-12-12T17:56:28.502Z,39.00
2022-12-12T17:59:01.349Z,44.00
2022-12-12T18:01:32.126Z,49.50
2022-12-12T18:04:05.189Z,30.50
2022-12-12T18:06:36.100Z,24.50
2022-12-12T18:09:06.872Z,28.25
2022-12-12T18:11:41.087Z,19.75
2022-12-12T18:14:16.356Z,12.00
2022-12-12T18:16:48.859Z,3.00
2022-12-12T18:19:20.944Z,9.00
2022-12-12T18:22:00.821Z,7.00
2022-12-12T18:24:27.979Z,0.00
2022-12-12T18:27:00.249Z,10.00
2022-12-12T18:29:38.166Z,10.75
2022-12-12T18:32:08.684Z,7.00
2022-12-12T18:34:39.472Z,7.50
2022-12-12T18:37:10.596Z,11.00
2022-12-12T18:39:41.423Z,11.25
2022-12-12T18:42:12.065Z,10.00
2022-12-12T18:44:42.944Z,11.00
2022-12-12T18:47:13.200Z,10.00
2022-12-12T18:49:44.166Z,10.50
2022-12-12T18:52:16.277Z,9.25
2022-12-12T18:54:48.592Z,6.00
2022-12-12T18:57:19.468Z,10.00
2022-12-12T18:59:50.289Z,10.00
2022-12-12T19:02:21.006Z,6.50
2022-12-12T19:04:51.825Z,9.75
2022-12-12T19:07:22.199Z,1.00
2022-12-12T19:09:53.082Z,9.00
2022-12-12T19:12:26.276Z,5.50
2022-12-12T19:15:16.322Z,10.00
2022-12-12T19:17:29.354Z,7.00
2022-12-12T19:20:00.754Z,8.50
2022-12-12T19:22:44.809Z,7.00
2022-12-12T19:25:05.278Z,9.75
2022-12-12T19:27:36.091Z,11.00
2022-12-12T19:30:07.689Z,6.25
2022-12-12T19:32:38.161Z,7.00
2022-12-12T19:35:09.140Z,9.50
2022-12-12T19:37:39.576Z,5.50
2022-12-12T19:40:30.475Z,8.50
2022-12-12T19:43:01.308Z,8.00
2022-12-12T19:45:31.649Z,9.75
2022-12-12T19:48:02.091Z,8.50
2022-12-12T19:50:34.364Z,10.25
2022-12-12T19:53:04.841Z,8.75
2022-12-12T19:55:35.893Z,9.50
2022-12-12T19:58:06.284Z,9.25
2022-12-12T20:00:37.447Z,6.50
2022-12-12T20:03:08.656Z,8.50
2022-12-12T20:05:39.270Z,10.50
2022-12-12T20:08:09.650Z,9.00
2022-12-12T20:10:40.721Z,7.25
2022-12-12T20:13:11.947Z,7.25
2022-12-12T20:15:42.444Z,7.00
2022-12-12T20:18:16.366Z,5.00
2022-12-12T20:20:45.365Z,11.50
2022-12-12T20:23:15.630Z,10.00
2022-12-12T20:25:46.035Z,5.00
2022-12-12T20:28:16.660Z,6.50
2022-12-12T20:30:53.247Z,9.00
2022-12-12T20:33:21.554Z,7.25
2022-12-12T20:35:52.145Z,9.25
2022-12-12T20:38:23.136Z,8.50
2022-12-12T20:40:53.483Z,9.00
2022-12-12T20:43:23.799Z,8.75
2022-12-12T20:45:56.569Z,0.00
2022-12-12T20:48:27.146Z,7.00
2022-12-12T20:51:00.767Z,10.00
2022-12-12T20:53:36.319Z,6.50
2022-12-12T20:58:58.833Z,7.50
2022-12-12T21:01:50.103Z,7.25
2022-12-12T21:04:20.651Z,7.25
2022-12-12T21:06:51.883Z,8.00
2022-12-12T21:09:25.849Z,5.50
2022-12-12T21:11:56.618Z,5.75
2022-12-12T21:14:28.300Z,8.75
2022-12-12T21:16:58.997Z,7.25
2022-12-12T21:19:30.670Z,8.25
2022-12-12T21:22:01.088Z,8.50
2022-12-12T21:24:31.619Z,12.75
2022-12-12T21:27:02.637Z,6.00
2022-12-12T21:29:33.339Z,13.00
2022-12-12T21:32:04.150Z,10.75
2022-12-12T21:34:38.125Z,10.25
2022-12-12T21:37:08.850Z,12.50
2022-12-12T21:39:39.391Z,9.50
2022-12-12T21:42:09.737Z,6.25
2022-12-12T21:44:45.533Z,6.50
2022-12-12T21:47:13.189Z,7.25
2022-12-12T21:49:43.506Z,7.25
2022-12-12T21:52:13.821Z,1.50
2022-12-12T21:54:44.388Z,11.25
2022-12-12T21:57:14.875Z,9.25
2022-12-12T21:59:45.636Z,7.50
2022-12-12T22:02:16.263Z,0.75
2022-12-12T22:04:46.757Z,6.00
2022-12-12T22:07:17.197Z,12.00
2022-12-12T22:09:57.834Z,5.00
2022-12-12T22:12:19.853Z,6.00
2022-12-12T22:14:50.233Z,7.75
2022-12-12T22:17:20.604Z,13.00
2022-12-12T22:19:51.095Z,11.25
2022-12-12T22:22:21.447Z,13.00
2022-12-12T22:24:52.322Z,13.25
2022-12-12T22:27:22.708Z,7.00
2022-12-12T22:29:53.035Z,13.00
2022-12-12T22:32:23.441Z,13.25
2022-12-12T22:34:53.941Z,12.25
2022-12-12T22:37:25.957Z,13.75
2022-12-12T22:39:56.299Z,8.00
2022-12-12T22:42:26.602Z,13.00
2022-12-12T22:44:57.005Z,10.00
2022-12-12T22:47:27.355Z,11.25
2022-12-12T22:49:58.709Z,9.50
2022-12-12T22:52:29.138Z,8.75
2022-12-12T22:54:59.442Z,9.50
2022-12-12T22:57:29.697Z,8.75
2022-12-12T23:00:00.534Z,9.00
2022-12-12T23:02:31.221Z,12.25
2022-12-12T23:05:01.937Z,11.25
2022-12-12T23:07:33.222Z,10.50
2022-12-12T23:10:04.189Z,10.00
2022-12-12T23:12:34.767Z,13.00
2022-12-12T23:15:05.375Z,10.00
2022-12-12T23:17:36.516Z,12.75
2022-12-12T23:22:58.016Z,5.75
2022-12-12T23:25:28.272Z,10.00
2022-12-12T23:27:58.593Z,10.75
2022-12-12T23:30:29.532Z,13.50
2022-12-12T23:32:59.942Z,10.00
2022-12-12T23:35:30.304Z,11.00
2022-12-12T23:38:00.595Z,12.25
2022-12-12T23:40:31.222Z,12.25
2022-12-12T23:43:01.799Z,11.00
2022-12-12T23:45:32.240Z,11.25
2022-12-12T23:48:03.146Z,6.00
2022-12-12T23:50:34.299Z,10.00
2022-12-12T23:53:10.321Z,12.25
2022-12-12T23:55:36.489Z,11.25
2022-12-12T23:58:06.641Z,9.75
